AirNav   Everest Fuels
 
 787 users online  

T00 Chambers County Airport
Anahuac, Texas, USA

GOING TO ANAHUAC?


FAA INFORMATION EFFECTIVE 18 JUNE 2020

Location

FAA Identifier: T00
Lat/Long: 29-46-11.3332N 094-39-48.5535W
29-46.188887N 094-39.809225W
29.7698148,-94.6634871
(estimated)
Elevation: 21.2 ft. / 6.5 m (surveyed)
Variation: 05E (1995)
From city: 1 mile E of ANAHUAC, TX
Time zone: UTC -5 (UTC -6 during Standard Time)
Zip code: 77514

Airport Operations

Airport use: Open to the public
Activation date: 10/1978
Control tower: no
ARTCC: HOUSTON CENTER
FSS: MONTGOMERY COUNTY FLIGHT SERVICE STATION
NOTAMs facility: CXO (NOTAM-D service available)
Attendance: MON-FRI 0800-1700
Wind indicator: lighted
Segmented circle: yes
Lights: DUSK-DAWN. MIRL RWY 12/30 PRESET LOW INTST; TO INCR INTST ACTVT - CTAF.
Beacon: white-green (lighted land airport)
Operates sunset to sunrise.

Airport Communications

CTAF: 122.9
HOUSTON APPROACH: 134.45 [0600-0000]
HOUSTON DEPARTURE: 134.45 [0600-0000]
BLTWY RNAV DP: 134.45
BLUEBELL STAR: 124.225
BORRN RNAV DP: 134.45
CESAN STAR: 121.3
DREMR DP: 134.45
HOODO RNAV DP: 134.45
HUDZY STAR: 120.05
INDIE RNAV DP: 134.45
KARRR RNAV DP: 134.45
LURIC DP: 134.45
MMALT RNAV DP: 134.45
OHIIO STAR: 120.05
STRYA DP: 134.45
STYCK DP: 134.45
TKNIQ STAR: 119.625
WAPPL STAR: 120.05
WATFO DP: 134.45
WYLSN RNAV DP: 134.45

Nearby radio navigation aids

VOR radial/distance  VOR name  Freq  Var
MHFr011/14.1TRINITY VOR/DME113.6007E
DASr177/25.2DAISETTA VORTAC116.9005E
VUHr014/31.9SCHOLES VOR/DME113.0006E
SBIr272/33.0SABINE PASS VOR/DME115.4007E
BPTr246/35.3BEAUMONT VOR/DME114.5007E
IAHr103/37.2HUMBLE VORTAC116.6005E

 
NDB name  Hdg/Dist  Freq  Var  ID
GOODHUE226/29.636807EGDE --. -.. .

Airport Services

Fuel available: 100LL JET-A
Parking: tiedowns
Bottled oxygen: NONE
Bulk oxygen: NONE

Runway Information

Runway 12/30

Dimensions: 3005 x 60 ft. / 916 x 18 m
Surface: asphalt, in poor condition
EXTSV CRACKING WITH VEGETATION GROWING THRU.
Weight bearing capacity: 
Single wheel: 13.0
Runway edge lights: medium intensity
RUNWAY 12  RUNWAY 30
Latitude: 29-46.363987N29-46.053815N
Longitude: 094-39.966058W094-39.522763W
Elevation: 20.4 ft.20.4 ft.
Traffic pattern: leftright
Runway heading: 124 magnetic, 129 true304 magnetic, 309 true
Markings: nonprecision, in good conditionnonprecision, in good condition
Visual slope indicator: 2-light PAPI on left (4.00 degrees glide path)
Touchdown point: yes, no lightsyes, no lights
Obstructions: 45 ft. pole, 882 ft. from runway, 160 ft. left of centerline, 15:1 slope to clear15 ft. road, 530 ft. from runway, 280 ft. left of centerline, 22:1 slope to clear

Runway 17/35

Dimensions: 1900 x 300 ft. / 579 x 91 m
Surface: turf, in good condition
RUNWAY 17  RUNWAY 35
Latitude: 29-46.313965N29-46.000500N
Longitude: 094-39.911733W094-39.911733W
Elevation: 20.0 ft.20.0 ft.
Traffic pattern: leftright
Runway heading: 175 magnetic, 180 true355 magnetic, 000 true
Markings: none, in good conditionnone, in good condition
Touchdown point: yes, no lightsyes, no lights
Obstructions: 60 ft. trees, 890 ft. from runway, 90 ft. left of centerline, 14:1 slope to clear17 ft. road, 230 ft. from runway, 13:1 slope to clear

Airport Ownership and Management from official FAA records

Ownership: Publicly-owned
Owner: CHAMBERS COUNTY
PO BOX 938
ANAHUAC, TX 77514
Phone 409-267-2400
Manager: KELLY TRAHAN
PO BOX 938
ANAHUAC, TX 77514
Phone 409-267-2719

Airport Operational Statistics

Aircraft based on the field: 9
Single engine airplanes: 8
Multi engine airplanes: 1
    
Aircraft operations: avg 46/week *
67% local general aviation
33% transient general aviation
* for 12-month period ending 23 April 2020

Additional Remarks

RWY 17/35 SOFT WHEN WET.
RWY 17, PAPI RWY 12 IN RWY 17 APCH, DO NOT LAND BFR XNG RWY 12.
FOR CD CTC HOUSTON APCH AT 281-443-5844 TO CNL IFR CALL 281-443-5888.

Instrument Procedures

NOTE: All procedures below are presented as PDF files. If you need a reader for these files, you should download the free Adobe Reader.

NOT FOR NAVIGATION. Please procure official charts for flight.
FAA instrument procedures published for use from 18 June 2020 at 0901Z to 16 July 2020 at 0900Z.

 
STARs - Standard Terminal Arrivals
BLUBELL FOUR   download (326KB)
CESAN FOUR (RNAV)   2 pages: [1] [2] (414KB)
HUDZY FOUR   2 pages: [1] [2] (367KB)
OHIIO FOUR   download (321KB)
TKNIQ TWO (RNAV)   2 pages: [1] [2] (341KB)
TSHRT ONE ARRIVAL   2 pages: [1] [2] (395KB)
WAPPL FIVE (RNAV)   2 pages: [1] [2] (435KB)
WAPPL FIVE (RNAV), CONT.2   download (290KB)
 
IAPs - Instrument Approach Procedures
RNAV (GPS) RWY 12 **CHANGED**   download (192KB)
 
Departure Procedures
BLTWY SIX (RNAV)   download (157KB)
BORRN FOUR (RNAV)   2 pages: [1] [2] (307KB)
HOODO SIX (RNAV)   download (207KB)
INDIE SEVEN (RNAV)   download (182KB)
KARRR SIX (RNAV)   2 pages: [1] [2] (263KB)
LURIC SEVEN (RNAV)   download (201KB)
MMALT FIVE (RNAV)   download (217KB)
PALACIOS ONE   2 pages: [1] [2] (316KB)
STRYA SEVEN (RNAV)   download (189KB)
STYCK SEVEN (RNAV)   download (176KB)
WATFO FIVE (RNAV)   download (163KB)
WYLSN SEVEN (RNAV)   download (165KB)
NOTE: Special Take-Off Minimums/Departure Procedures apply   download (70KB)

Other nearby airports with instrument procedures:

54T - RWJ Airpark (10 nm W)
KHPY - Baytown Airport (15 nm W)
T78 - Liberty Municipal Airport (19 nm N)
T41 - La Porte Municipal Airport (22 nm W)
KEFD - Ellington Airport (28 nm W)
 
Loc | Ops | Rwys | IFR | FBO | Links
Com | Nav | Svcs | Stats | Notes
Area around T00 (Chambers County Airport)
 
Road maps at: MapQuest Bing Google
 
Aerial photo
WARNING: Photo may not be current or correct
Aerial photo of T00 (Chambers County Airport)
Photo taken 04-Mar-2007
on final for runway 30

Do you have a better or more recent aerial photo of Chambers County Airport that you would like to share? If so, please send us your photo.

 
Sectional chart

 
Airport distance calculator
Flying to Chambers County Airport? Find the distance to fly.

From to T00

Sunrise and sunset
Times for 10-Jul-2020
 Local
(UTC-5)
 Zulu
(UTC)
Morning civil twilight06:0011:00
Sunrise06:2711:27
Sunset20:2101:21
Evening civil twilight20:4801:48

Current date and time
Zulu (UTC)  10-Jul-2020 12:39:12
Local (UTC-5)  10-Jul-2020 07:39:12
 
METAR
KT41 
22nm W 
101215Z AUTO 00000KT 10SM CLR 27/25 A3002 RMK AO2 T02660254
KEFD 
28nm W 
101150Z 00000KT 7SM FEW035 25/24 A3000
KBMT 
29nm NE 
101215Z AUTO 00000KT 10SM CLR 26/26 A3002 RMK AO2 T02610255
KGLS 
32nm S 
101152Z 20004KT 10SM CLR 29/26 A3002 RMK AO2 SLP164 T02890261 10289 20283 53019
KHOU 
33nm W 
101153Z 00000KT 9SM FEW015 FEW250 27/24 A3001 RMK AO2 SLP164 T02670244 10278 20267 51020
KLVJ 
34nm SW 
101153Z AUTO 00000KT 6SM BR CLR 26/24 A3002 RMK AO2 SLP166 T02610239 10278 20261 53020
KBPT 
35nm E 
101153Z 00000KT 5SM BR CLR 24/24 A3002 RMK AO2 SLP165 60001 70001 T02390239 10256 20233 53018
KIAH 
39nm W 
101153Z 00000KT 10SM FEW015 FEW250 27/25 A3002 RMK AO2 SLP163 T02670250 10278 20261 51026
K6R3 
39nm NW 
101215Z AUTO 00000KT 3SM BR CLR 23/23 A3004 RMK AO2 T02340233
TAF
KEFD 
28nm W 
101200Z 1012/1118 VRB06KT 9999 FEW025 QNH2994INS BECMG 1015/1016 19010G15KT 9999 SCT020 QNH2993INS BECMG 1100/1101 18009KT 9999 FEW030 QNH2992INS TX35/1021Z TN25/1112Z
KGLS 
32nm S 
101125Z 1012/1112 19006KT P6SM FEW020 FM101500 18010KT P6SM FEW030 FM110500 21010KT P6SM FEW050
KHOU 
33nm W 
101125Z 1012/1112 VRB03KT P6SM FEW015 SCT030 FM101600 20007KT P6SM FEW045 SCT060 FM101900 17006KT P6SM FEW080 SCT120 FM110600 21006KT P6SM SCT250
KBPT 
35nm E 
101120Z 1012/1112 VRB04KT P6SM SCT020 BKN150 FM101500 24007KT P6SM SCT030 SCT150 FM110200 VRB03KT P6SM SKC
NOTAMs
Click for the latest NOTAMs
NOTAMs are issued by the DoD/FAA and will open in a separate window not controlled by AirNav.

 

 
 

FBO, Fuel Providers, and Aircraft Ground Support

  
 Business Name 
 
 Contact 
 
 Services / Description 
 
Fuel Prices
 
Comments
  
Chambers County Anahuac Airport 409-267-2719
no information available

If you are affiliated with Chambers County Anahuac Airport and would like to show here your services, contact info, web link, logo, and more, click here
100LL Jet A
SS $4.00 $3.40 
 Updated 30-Jun-2020
 
   1 read write
SS=Self service
Update Fuel Prices
 

Would you like to see your business listed on this page?

 If your business provides an interesting product or service to pilots, flight crews, aircraft, or users of the Chambers County Airport, you should consider listing it here.  To start the listing process, click on the button below
 
Add a business
 

Other Pages about Chambers County Airport

www.co.chambers.tx.us/...
 
Update a link
 
Copyright © AirNav, LLC. All rights reserved. Privacy Policy  Contact